createdAt,value
2022-09-17T00:00:38.120Z,12.14
2022-09-17T00:03:07.384Z,12.11
2022-09-17T00:05:34.370Z,12.16
2022-09-17T00:08:01.139Z,12.17
2022-09-17T00:10:27.761Z,12.19
2022-09-17T00:12:54.443Z,12.13
2022-09-17T00:15:21.137Z,12.16
2022-09-17T00:17:47.753Z,12.22
2022-09-17T00:20:14.327Z,12.21
2022-09-17T00:22:40.941Z,12.22
2022-09-17T00:25:08.784Z,12.22
2022-09-17T00:27:35.450Z,12.17
2022-09-17T00:30:02.127Z,12.11
2022-09-17T00:32:28.784Z,12.07
2022-09-17T00:34:55.486Z,12.00
2022-09-17T00:37:22.315Z,12.02
2022-09-17T00:39:49.003Z,11.95
2022-09-17T00:42:16.732Z,11.93
2022-09-17T00:44:53.491Z,11.89
2022-09-17T00:47:25.981Z,11.92
2022-09-17T00:50:00.680Z,11.94
2022-09-17T00:52:33.829Z,11.92
2022-09-17T00:55:06.959Z,11.90
2022-09-17T00:57:34.056Z,11.95
2022-09-17T01:00:00.944Z,11.98
2022-09-17T01:02:27.800Z,11.89
2022-09-17T01:04:54.894Z,11.91
2022-09-17T01:07:41.085Z,11.98
2022-09-17T01:10:16.886Z,12.00
2022-09-17T01:13:08.049Z,11.97
2022-09-17T01:15:47.964Z,11.88
2022-09-17T01:18:22.867Z,11.90
2022-09-17T01:21:17.188Z,11.80
2022-09-17T01:23:43.778Z,11.78
2022-09-17T01:26:13.588Z,11.79
2022-09-17T01:28:46.109Z,11.77
2022-09-17T01:31:24.908Z,11.81
2022-09-17T01:34:12.215Z,11.82
2022-09-17T01:37:15.970Z,11.84
2022-09-17T01:39:54.015Z,11.92
2022-09-17T01:42:59.816Z,11.94
2022-09-17T01:45:42.588Z,11.96
2022-09-17T01:48:23.352Z,11.88
2022-09-17T01:50:53.873Z,11.85
2022-09-17T01:53:24.929Z,11.83
2022-09-17T01:55:53.312Z,11.86
2022-09-17T01:58:27.194Z,11.91
2022-09-17T02:00:59.007Z,11.88
2022-09-17T02:03:30.759Z,11.96
2022-09-17T02:05:57.272Z,11.99
2022-09-17T02:08:49.068Z,12.00
2022-09-17T02:11:17.292Z,12.07
2022-09-17T02:13:55.981Z,11.96
2022-09-17T02:16:26.050Z,12.00
2022-09-17T02:19:07.621Z,11.94
2022-09-17T02:21:46.015Z,11.87
2022-09-17T02:24:23.717Z,11.91
2022-09-17T02:27:17.752Z,11.94
2022-09-17T02:29:45.243Z,12.00
2022-09-17T02:32:13.054Z,12.01
2022-09-17T02:34:40.166Z,12.02
2022-09-17T02:37:07.451Z,12.03
2022-09-17T02:39:34.395Z,12.04
2022-09-17T02:42:26.078Z,12.00
2022-09-17T02:45:34.370Z,11.99
2022-09-17T02:48:09.898Z,11.94
2022-09-17T02:50:39.471Z,11.98
2022-09-17T02:53:15.133Z,11.95
2022-09-17T02:55:53.164Z,11.90
2022-09-17T02:58:41.397Z,11.88
2022-09-17T03:01:15.117Z,11.84
2022-09-17T03:03:43.902Z,11.82
2022-09-17T03:06:10.518Z,11.81
2022-09-17T03:08:40.336Z,11.82
2022-09-17T03:11:09.297Z,11.91
2022-09-17T03:13:36.624Z,11.93
2022-09-17T03:16:03.969Z,12.02
2022-09-17T03:18:30.745Z,12.04
2022-09-17T03:20:57.627Z,12.06
2022-09-17T03:23:24.323Z,12.05
2022-09-17T03:25:50.897Z,12.11
2022-09-17T03:28:17.672Z,12.08
2022-09-17T03:30:45.165Z,12.08
2022-09-17T03:33:11.785Z,12.10
2022-09-17T03:35:38.957Z,12.14
2022-09-17T03:38:05.567Z,12.13
2022-09-17T03:40:32.184Z,12.18
2022-09-17T03:42:58.793Z,12.14
2022-09-17T03:45:25.519Z,12.12
2022-09-17T03:47:52.110Z,12.07
2022-09-17T03:50:18.718Z,12.14
2022-09-17T03:52:45.418Z,12.12
2022-09-17T03:55:12.048Z,12.09
2022-09-17T03:57:38.631Z,12.11
2022-09-17T04:00:06.575Z,12.11
2022-09-17T04:02:33.453Z,12.17
2022-09-17T04:05:00.228Z,12.20
2022-09-17T04:07:26.993Z,12.16
2022-09-17T04:09:53.641Z,12.15
2022-09-17T04:12:20.406Z,12.17
2022-09-17T04:14:47.044Z,12.15
2022-09-17T04:17:18.174Z,12.08
2022-09-17T04:19:45.267Z,12.13
2022-09-17T04:22:11.834Z,12.10
2022-09-17T04:24:38.425Z,12.01
2022-09-17T04:27:05.049Z,11.93
2022-09-17T04:29:31.642Z,11.94
2022-09-17T04:31:58.218Z,11.91
2022-09-17T04:34:24.804Z,11.93
2022-09-17T04:36:51.389Z,11.93
2022-09-17T04:39:18.002Z,11.94
2022-09-17T04:41:44.602Z,11.95
2022-09-17T04:44:11.147Z,11.94
2022-09-17T04:46:37.803Z,11.99
2022-09-17T04:49:04.407Z,11.99
2022-09-17T04:51:31.003Z,11.93
2022-09-17T04:53:57.620Z,11.90
2022-09-17T04:56:24.290Z,11.83
2022-09-17T04:58:50.903Z,11.72
2022-09-17T05:01:18.917Z,11.62
2022-09-17T05:03:46.211Z,11.60
2022-09-17T05:06:12.794Z,11.68
2022-09-17T05:08:39.627Z,11.63
2022-09-17T05:11:06.278Z,11.63
2022-09-17T05:13:33.140Z,11.64
2022-09-17T05:15:59.864Z,11.65
2022-09-17T05:18:26.732Z,11.73
2022-09-17T05:20:53.433Z,11.78
2022-09-17T05:23:20.390Z,11.70
2022-09-17T05:25:46.965Z,11.74
2022-09-17T05:28:13.708Z,11.77
2022-09-17T05:30:40.676Z,11.79
2022-09-17T05:33:07.432Z,11.75
2022-09-17T05:35:36.664Z,11.66
2022-09-17T05:38:05.433Z,11.68
2022-09-17T05:40:33.242Z,11.57
2022-09-17T05:43:01.292Z,11.60
2022-09-17T05:45:28.555Z,11.61
2022-09-17T05:47:59.434Z,11.63
2022-09-17T05:50:26.665Z,11.59
2022-09-17T05:53:01.366Z,11.64
2022-09-17T05:55:27.975Z,11.64
2022-09-17T05:57:57.997Z,11.66
2022-09-17T06:00:24.655Z,11.61
2022-09-17T06:03:00.794Z,11.53
2022-09-17T06:05:27.533Z,11.55
2022-09-17T06:07:54.117Z,11.59
2022-09-17T06:10:20.982Z,11.64
2022-09-17T06:12:47.615Z,11.66
2022-09-17T06:15:14.857Z,11.63
2022-09-17T06:17:41.564Z,11.57
2022-09-17T06:20:09.015Z,11.52
2022-09-17T06:22:35.642Z,11.53
2022-09-17T06:25:04.023Z,11.58
2022-09-17T06:27:32.777Z,11.55
2022-09-17T06:30:06.415Z,11.60
2022-09-17T06:32:33.583Z,11.67
2022-09-17T06:35:00.205Z,11.59
2022-09-17T06:37:31.586Z,11.60
2022-09-17T06:39:59.486Z,11.65
2022-09-17T06:42:26.875Z,11.70
2022-09-17T06:44:53.472Z,11.69
2022-09-17T06:47:20.774Z,11.71
2022-09-17T06:49:47.367Z,11.65
2022-09-17T06:52:13.923Z,11.66
2022-09-17T06:54:40.483Z,11.57
2022-09-17T06:57:07.155Z,11.64
2022-09-17T06:59:33.718Z,11.61
2022-09-17T07:02:00.495Z,11.58
2022-09-17T07:04:27.153Z,11.60
2022-09-17T07:06:53.780Z,11.71
2022-09-17T07:09:20.339Z,11.80
2022-09-17T07:11:46.955Z,11.82
2022-09-17T07:14:13.759Z,11.88
2022-09-17T07:16:40.389Z,11.89
2022-09-17T09:30:41.529Z,14.06
2022-09-17T09:33:48.059Z,14.04
2022-09-17T09:38:15.757Z,14.12
2022-09-17T09:39:56.272Z,14.11
2022-09-17T09:43:14.651Z,14.14
2022-09-17T09:46:34.551Z,14.25
2022-09-17T09:50:01.860Z,14.26
2022-09-17T09:53:32.425Z,14.37
2022-09-17T10:04:53.255Z,14.54
2022-09-17T10:11:20.843Z,14.14
2022-09-17T10:17:24.110Z,14.05
2022-09-17T10:20:54.646Z,14.15
2022-09-17T10:31:19.173Z,14.41
2022-09-17T10:39:28.735Z,13.82
2022-09-17T12:30:23.185Z,12.84
2022-09-17T12:33:04.918Z,13.15
2022-09-17T12:35:59.734Z,13.44
2022-09-17T12:38:48.813Z,13.78
2022-09-17T12:41:27.208Z,13.84
2022-09-17T12:44:06.895Z,13.99
2022-09-17T12:47:07.504Z,14.19
2022-09-17T12:49:54.728Z,14.32
2022-09-17T12:52:43.104Z,14.33
2022-09-17T12:55:31.158Z,14.34
2022-09-17T12:58:03.699Z,14.47
2022-09-17T13:00:36.645Z,14.66
2022-09-17T13:03:15.565Z,14.75
2022-09-17T13:05:55.164Z,14.94
2022-09-17T13:08:40.786Z,15.16
2022-09-17T13:11:26.237Z,15.31
2022-09-17T13:13:56.114Z,15.35
2022-09-17T13:16:50.419Z,15.54
2022-09-17T13:19:39.961Z,15.69
2022-09-17T13:22:17.532Z,15.56
2022-09-17T13:24:47.398Z,15.66
2022-09-17T13:27:22.672Z,15.94
2022-09-17T13:29:55.413Z,16.10
2022-09-17T13:32:34.828Z,16.14
2022-09-17T13:35:10.575Z,15.85
2022-09-17T13:37:42.857Z,15.47
2022-09-17T13:40:30.686Z,15.23
2022-09-17T13:43:18.574Z,13.38
2022-09-17T13:46:12.635Z,12.66
2022-09-17T13:48:48.868Z,12.60
2022-09-17T13:51:30.728Z,12.32
2022-09-17T13:54:02.383Z,12.35
2022-09-17T13:56:32.180Z,12.39
2022-09-17T13:59:09.400Z,12.49
2022-09-17T14:01:59.760Z,12.70
2022-09-17T14:04:41.678Z,13.07
2022-09-17T14:07:24.433Z,13.38
2022-09-17T14:10:01.603Z,13.58
2022-09-17T14:12:58.688Z,13.70
2022-09-17T14:15:38.833Z,13.65
2022-09-17T14:18:27.542Z,13.64
2022-09-17T14:21:14.568Z,13.70
2022-09-17T14:23:46.788Z,13.73
2022-09-17T14:26:52.745Z,13.81
2022-09-17T14:29:23.457Z,13.88
2022-09-17T14:31:50.197Z,14.15
2022-09-17T14:34:21.441Z,14.34
2022-09-17T14:36:48.477Z,14.40
2022-09-17T14:39:22.457Z,14.34
2022-09-17T14:41:49.491Z,14.30
2022-09-17T14:44:20.073Z,14.54
2022-09-17T14:47:16.061Z,14.71
2022-09-17T14:49:43.191Z,14.77
2022-09-17T14:52:27.645Z,14.80
2022-09-17T14:55:11.790Z,14.90
2022-09-17T14:57:38.753Z,15.05
2022-09-17T15:00:10.857Z,15.19
2022-09-17T15:02:46.423Z,15.32
2022-09-17T15:05:21.468Z,15.35
2022-09-17T15:07:48.238Z,15.43
2022-09-17T15:10:17.991Z,15.53
2022-09-17T15:12:45.766Z,15.68
2022-09-17T15:15:23.663Z,15.59
2022-09-17T15:17:51.015Z,15.33
2022-09-17T15:20:23.889Z,15.27
2022-09-17T15:22:54.827Z,15.00
2022-09-17T15:25:26.839Z,15.17
2022-09-17T15:27:56.537Z,15.26
2022-09-17T15:30:25.132Z,15.34
2022-09-17T15:32:59.228Z,15.42
2022-09-17T15:35:30.836Z,15.46
2022-09-17T15:40:47.481Z,15.72
2022-09-17T15:43:38.235Z,15.44
2022-09-17T15:46:37.415Z,15.28
2022-09-17T15:49:04.587Z,15.16
2022-09-17T15:51:33.354Z,15.08
2022-09-17T15:54:06.898Z,14.98
2022-09-17T15:56:40.502Z,15.14
2022-09-17T15:59:27.709Z,15.28
2022-09-17T16:01:56.427Z,15.19
2022-09-17T16:04:32.018Z,14.87
2022-09-17T16:07:01.618Z,14.54
2022-09-17T16:09:50.082Z,14.26
2022-09-17T16:12:21.473Z,14.18
2022-09-17T16:14:51.594Z,14.18
2022-09-17T16:17:21.273Z,14.17
2022-09-17T16:19:48.139Z,14.13
2022-09-17T16:22:14.758Z,14.16
2022-09-17T16:24:41.455Z,14.10
2022-09-17T16:27:13.690Z,14.14
2022-09-17T16:29:40.304Z,14.18
2022-09-17T16:32:10.207Z,14.34
2022-09-17T16:34:36.878Z,14.33
2022-09-17T16:37:03.920Z,14.38
2022-09-17T16:39:30.612Z,14.33
2022-09-17T16:41:57.237Z,14.35
2022-09-17T16:44:23.843Z,14.54
2022-09-17T16:46:50.502Z,14.69
2022-09-17T16:49:17.378Z,14.66
2022-09-17T16:51:44.134Z,14.67
2022-09-17T16:54:10.727Z,14.62
2022-09-17T16:56:37.414Z,14.49
2022-09-17T16:59:04.200Z,14.48
2022-09-17T17:01:31.034Z,14.43
2022-09-17T17:03:59.702Z,14.40
2022-09-17T17:06:26.824Z,14.43
2022-09-17T17:08:53.543Z,14.36
2022-09-17T17:11:20.171Z,14.33
2022-09-17T17:13:47.448Z,14.24
2022-09-17T17:16:15.266Z,14.29
2022-09-17T17:18:45.243Z,14.27
2022-09-17T17:21:13.223Z,14.26
2022-09-17T17:23:40.258Z,14.17
2022-09-17T17:26:06.916Z,14.21
2022-09-17T17:28:35.279Z,14.26
2022-09-17T17:31:03.078Z,14.22
2022-09-17T17:33:29.967Z,14.23
2022-09-17T17:36:05.310Z,14.26
2022-09-17T17:38:34.243Z,14.25
2022-09-17T17:41:06.961Z,14.21
2022-09-17T17:43:33.763Z,14.15
2022-09-17T17:46:00.484Z,14.17
2022-09-17T17:48:27.553Z,14.15
2022-09-17T17:50:56.699Z,14.04
2022-09-17T17:53:23.693Z,14.03
2022-09-17T17:56:00.758Z,14.05
2022-09-17T17:58:28.254Z,13.99
2022-09-17T18:00:55.059Z,13.96
2022-09-17T18:03:25.192Z,13.92
2022-09-17T18:05:53.549Z,13.98
2022-09-17T18:08:20.204Z,14.00
2022-09-17T18:10:54.480Z,14.01
2022-09-17T18:13:21.729Z,13.98
2022-09-17T18:15:57.064Z,13.96
2022-09-17T18:18:24.863Z,13.96
2022-09-17T18:20:53.362Z,13.96
2022-09-17T18:23:21.178Z,13.95
2022-09-17T18:25:58.969Z,13.98
2022-09-17T18:28:55.245Z,13.99
2022-09-17T18:31:54.096Z,13.97
2022-09-17T18:34:21.150Z,13.98
2022-09-17T18:36:51.145Z,14.00
2022-09-17T18:39:57.320Z,14.08
2022-09-17T18:42:04.794Z,14.06
2022-09-17T18:44:31.491Z,13.93
2022-09-17T18:46:58.235Z,13.91
2022-09-17T18:49:26.988Z,13.88
2022-09-17T18:51:53.688Z,13.94
2022-09-17T18:54:20.328Z,13.98
2022-09-17T18:56:46.925Z,13.97
2022-09-17T18:59:13.615Z,14.00
2022-09-17T19:01:40.290Z,14.05
2022-09-17T19:04:10.178Z,14.05
2022-09-17T19:06:37.000Z,13.99
2022-09-17T19:09:05.253Z,14.04
2022-09-17T19:11:31.974Z,14.04
2022-09-17T19:13:58.742Z,13.97
2022-09-17T19:16:25.944Z,13.93
2022-09-17T19:18:52.711Z,13.90
2022-09-17T19:21:23.436Z,13.86
2022-09-17T19:23:56.183Z,13.85
2022-09-17T19:26:26.095Z,13.83
2022-09-17T19:28:54.227Z,13.84
2022-09-17T19:31:21.262Z,13.82
2022-09-17T19:33:48.114Z,13.80
2022-09-17T19:36:16.603Z,13.78
2022-09-17T19:38:43.643Z,13.75
2022-09-17T19:41:13.433Z,13.77
2022-09-17T19:43:40.212Z,13.73
2022-09-17T19:46:15.080Z,13.73
2022-09-17T19:49:00.639Z,13.71
2022-09-17T19:51:29.802Z,13.65
2022-09-17T19:53:57.306Z,13.63
2022-09-17T19:56:25.829Z,13.63
2022-09-17T19:58:53.061Z,13.59
2022-09-17T20:01:20.377Z,13.63
2022-09-17T20:03:47.423Z,13.63
2022-09-17T20:06:16.950Z,13.69
2022-09-17T20:08:47.754Z,13.70
2022-09-17T20:11:15.298Z,13.72
2022-09-17T20:13:42.035Z,13.59
2022-09-17T20:16:15.038Z,13.48
2022-09-17T20:18:41.936Z,13.47
2022-09-17T20:21:09.394Z,13.48
2022-09-17T20:23:36.410Z,13.44
2022-09-17T20:26:03.767Z,13.36
2022-09-17T20:28:30.475Z,13.35
2022-09-17T20:31:05.315Z,13.37
2022-09-17T20:33:32.908Z,13.34
2022-09-17T20:36:05.336Z,13.27
2022-09-17T20:41:20.155Z,13.33
2022-09-17T20:43:49.101Z,13.32
2022-09-17T20:46:16.494Z,13.33
2022-09-17T20:48:43.623Z,13.27
2022-09-17T20:51:14.422Z,13.20
2022-09-17T20:53:42.164Z,13.17
2022-09-17T20:56:14.184Z,13.17
2022-09-17T20:58:48.368Z,13.19
2022-09-17T21:01:20.783Z,13.10
2022-09-17T21:03:52.728Z,13.10
2022-09-17T21:06:21.820Z,13.05
2022-09-17T21:08:49.016Z,12.93
2022-09-17T21:11:16.964Z,12.97
2022-09-17T21:13:44.065Z,13.00
2022-09-17T21:16:11.709Z,12.87
2022-09-17T21:18:39.867Z,12.79
2022-09-17T21:21:09.167Z,12.78
2022-09-17T21:23:37.172Z,12.72
2022-09-17T21:26:11.767Z,12.65
2022-09-17T21:28:39.502Z,12.62
2022-09-17T21:31:12.301Z,12.61
2022-09-17T21:33:39.323Z,12.70
2022-09-17T21:36:08.400Z,12.79
2022-09-17T21:38:35.196Z,12.67
2022-09-17T21:41:08.845Z,12.76
2022-09-17T21:43:36.155Z,12.81
2022-09-17T21:46:07.285Z,12.72
2022-09-17T21:48:37.109Z,12.69
2022-09-17T21:51:09.204Z,12.65
2022-09-17T21:53:35.916Z,12.71
2022-09-17T21:56:07.883Z,12.72
2022-09-17T21:58:34.576Z,12.66
2022-09-17T22:01:12.341Z,12.67
2022-09-17T22:03:42.197Z,12.69
2022-09-17T22:06:16.609Z,12.65
2022-09-17T22:08:43.759Z,12.60
2022-09-17T22:11:24.613Z,12.63
2022-09-17T22:13:56.534Z,12.58
2022-09-17T22:16:25.105Z,12.59
2022-09-17T22:18:52.229Z,12.60
2022-09-17T22:21:24.231Z,12.61
2022-09-17T22:23:52.597Z,12.64
2022-09-17T22:26:21.269Z,12.50
2022-09-17T22:28:48.950Z,12.58
2022-09-17T22:31:15.818Z,12.70
2022-09-17T22:33:44.726Z,12.70
2022-09-17T22:36:19.220Z,12.68
2022-09-17T22:38:48.157Z,12.64
2022-09-17T22:41:20.710Z,12.54
2022-09-17T22:43:47.816Z,12.51
2022-09-17T22:46:18.366Z,12.53
2022-09-17T22:48:45.669Z,12.61
2022-09-17T22:51:12.558Z,12.58
2022-09-17T22:53:40.098Z,12.55
2022-09-17T22:56:14.985Z,12.46
2022-09-17T22:58:41.957Z,12.42
2022-09-17T23:01:15.680Z,12.42
2022-09-17T23:03:43.224Z,12.34
2022-09-17T23:06:12.315Z,12.38
2022-09-17T23:08:39.610Z,12.42
2022-09-17T23:11:08.550Z,12.42
2022-09-17T23:13:35.645Z,12.41
2022-09-17T23:16:03.716Z,12.40
2022-09-17T23:18:30.438Z,12.35
2022-09-17T23:21:08.533Z,12.40
2022-09-17T23:23:36.572Z,12.38
2022-09-17T23:26:23.065Z,12.43
2022-09-17T23:28:50.360Z,12.44
2022-09-17T23:31:18.149Z,12.46
2022-09-17T23:33:45.351Z,12.48
2022-09-17T23:36:17.108Z,12.48
2022-09-17T23:38:45.225Z,12.43
2022-09-17T23:41:20.698Z,12.38
2022-09-17T23:43:52.769Z,12.38
2022-09-17T23:46:20.963Z,12.42
2022-09-17T23:48:48.326Z,12.39
2022-09-17T23:51:16.638Z,12.41
2022-09-17T23:53:43.638Z,12.40
2022-09-17T23:56:13.317Z,12.36
2022-09-17T23:58:40.385Z,12.43
